createdAt,value
2022-12-10T00:03:59.147Z,1.4
2022-12-10T00:08:59.029Z,1.39
2022-12-10T00:13:58.763Z,1.37
2022-12-10T00:18:57.670Z,1.35
2022-12-10T00:23:56.380Z,1.33
2022-12-10T00:28:55.984Z,1.3
2022-12-10T00:33:55.574Z,1.28
2022-12-10T00:38:55.728Z,1.27
2022-12-10T00:43:55.070Z,1.25
2022-12-10T00:48:53.873Z,1.23
2022-12-10T00:53:53.413Z,1.2
2022-12-10T00:58:53.382Z,1.17
2022-12-10T01:03:52.056Z,1.16
2022-12-10T01:08:51.392Z,1.13
2022-12-10T01:13:49.973Z,1.12
2022-12-10T01:18:49.842Z,1.11
2022-12-10T01:23:49.576Z,1.11
2022-12-10T01:28:49.403Z,1.1
2022-12-10T01:33:49.693Z,1.11
2022-12-10T01:38:48.111Z,1.11
2022-12-10T01:43:47.985Z,1.11
2022-12-10T01:48:47.602Z,1.1
2022-12-10T01:53:46.454Z,1.09
2022-12-10T01:58:45.024Z,1.09
2022-12-10T02:03:44.802Z,1.07
2022-12-10T02:08:44.636Z,1.07
2022-12-10T02:13:43.768Z,1.05
2022-12-10T02:18:42.192Z,1.04
2022-12-10T02:23:41.279Z,1.04
2022-12-10T02:28:40.670Z,1.03
2022-12-10T02:33:40.831Z,1.02
2022-12-10T02:38:39.184Z,1
2022-12-10T02:43:38.105Z,0.99
2022-12-10T02:48:37.829Z,0.96
2022-12-10T02:53:36.940Z,0.93
2022-12-10T02:58:35.989Z,0.87
2022-12-10T02:59:55.959Z,0.87
2022-12-10T03:04:55.635Z,0.84
2022-12-10T03:09:55.365Z,0.81
2022-12-10T03:14:55.692Z,0.78
2022-12-10T03:19:54.290Z,0.78
2022-12-10T03:24:54.128Z,0.76
2022-12-10T03:29:53.691Z,0.75
2022-12-10T03:34:52.887Z,0.73
2022-12-10T03:39:51.890Z,0.71
2022-12-10T03:44:51.670Z,0.7
2022-12-10T03:49:51.393Z,0.69
2022-12-10T03:54:51.339Z,0.69
2022-12-10T03:59:08.208Z,0.69
2022-12-10T04:04:07.854Z,0.66
2022-12-10T04:09:06.051Z,0.66
2022-12-10T04:14:06.128Z,0.65
2022-12-10T04:19:05.318Z,0.62
2022-12-10T04:24:04.488Z,0.6
2022-12-10T04:29:03.183Z,0.58
2022-12-10T04:34:01.978Z,0.55
2022-12-10T04:39:01.809Z,0.51
2022-12-10T04:44:01.581Z,0.48
2022-12-10T04:49:00.078Z,0.45
2022-12-10T04:53:59.381Z,0.41
2022-12-10T04:58:46.029Z,0.4
2022-12-10T05:03:45.943Z,0.38
2022-12-10T05:08:45.446Z,0.35
2022-12-10T05:13:45.105Z,0.34
2022-12-10T05:18:43.975Z,0.31
2022-12-10T05:23:43.826Z,0.29
2022-12-10T05:28:43.129Z,0.28
2022-12-10T05:33:42.577Z,0.28
2022-12-10T05:38:41.270Z,0.27
2022-12-10T05:43:40.807Z,0.28
2022-12-10T05:48:38.966Z,0.26
2022-12-10T05:53:38.688Z,0.25
2022-12-10T05:58:38.244Z,0.23
2022-12-10T06:03:37.098Z,0.23
2022-12-10T06:08:36.019Z,0.22
2022-12-10T06:13:34.839Z,0.21
2022-12-10T06:18:34.504Z,0.21
2022-12-10T06:23:34.413Z,0.21
2022-12-10T06:28:33.113Z,0.21
2022-12-10T06:33:32.372Z,0.2
2022-12-10T06:38:31.101Z,0.2
2022-12-10T06:43:31.058Z,0.19
2022-12-10T06:48:30.948Z,0.2
2022-12-10T06:53:30.006Z,0.18
2022-12-10T06:58:29.405Z,0.19
2022-12-10T07:03:30.374Z,0.19
2022-12-10T07:08:28.229Z,0.17
2022-12-10T07:13:30.644Z,0.18
2022-12-10T07:18:25.860Z,0.18
2022-12-10T07:23:25.827Z,0.17
2022-12-10T07:28:25.194Z,0.16
2022-12-10T07:33:25.229Z,0.14
2022-12-10T07:38:24.303Z,0.14
2022-12-10T07:43:23.629Z,0.15
2022-12-10T07:48:22.023Z,0.16
2022-12-10T07:53:21.683Z,0.18
2022-12-10T07:58:17.301Z,0.17
2022-12-10T08:03:16.209Z,0.21
2022-12-10T08:08:26.344Z,0.23
2022-12-10T08:13:24.492Z,0.25
2022-12-10T08:18:23.800Z,0.3
2022-12-10T08:23:23.382Z,0.33
2022-12-10T08:28:22.976Z,0.35
2022-12-10T08:33:22.335Z,0.4
2022-12-10T08:38:21.853Z,0.41
2022-12-10T08:43:20.959Z,0.4
2022-12-10T08:48:20.225Z,0.39
2022-12-10T08:53:09.142Z,0.4
2022-12-10T08:58:08.196Z,0.46
2022-12-10T08:59:28.381Z,0.47
2022-12-10T09:04:27.417Z,0.48
2022-12-10T09:09:26.787Z,0.49
2022-12-10T09:14:26.658Z,0.54
2022-12-10T09:19:25.278Z,0.61
2022-12-10T09:24:24.739Z,0.63
2022-12-10T09:29:23.486Z,0.67
2022-12-10T09:34:23.322Z,0.69
2022-12-10T09:39:22.417Z,0.79
2022-12-10T09:44:21.663Z,0.84
2022-12-10T09:49:20.439Z,0.86
2022-12-10T09:54:19.477Z,0.87
2022-12-10T09:59:07.050Z,0.86
2022-12-10T10:04:06.046Z,0.85
2022-12-10T10:09:05.584Z,0.89
2022-12-10T10:14:04.824Z,0.9
2022-12-10T10:19:04.193Z,0.91
2022-12-10T10:24:08.461Z,0.86
2022-12-10T10:29:02.876Z,0.78
2022-12-10T10:34:02.244Z,0.76
2022-12-10T10:39:00.976Z,0.8
2022-12-10T10:44:00.621Z,0.85
2022-12-10T10:49:00.252Z,0.89
2022-12-10T10:54:01.276Z,0.87
2022-12-10T10:58:47.630Z,0.91
2022-12-10T11:03:47.248Z,0.94
2022-12-10T11:08:45.791Z,0.98
2022-12-10T11:13:45.890Z,1.04
2022-12-10T11:18:44.530Z,1.05
2022-12-10T11:23:43.957Z,1.12
2022-12-10T11:28:42.674Z,1.22
2022-12-10T11:33:42.753Z,1.27
2022-12-10T11:38:42.150Z,1.28
2022-12-10T11:43:42.306Z,1.28
2022-12-10T11:48:42.412Z,1.39
2022-12-10T11:53:39.903Z,1.5
2022-12-10T11:58:39.675Z,1.57
2022-12-10T12:03:39.365Z,1.61
2022-12-10T12:08:38.251Z,1.67
2022-12-10T12:13:37.698Z,1.66
2022-12-10T12:18:36.168Z,1.62
2022-12-10T12:23:35.798Z,1.58
2022-12-10T12:28:35.595Z,1.59
2022-12-10T12:33:34.571Z,1.51
2022-12-10T12:38:34.020Z,1.42
2022-12-10T12:43:33.677Z,1.42
2022-12-10T12:48:33.580Z,1.68
2022-12-10T12:53:35.344Z,1.93
2022-12-10T12:58:31.663Z,1.86
2022-12-10T12:59:52.275Z,1.81
2022-12-10T13:04:50.742Z,1.66
2022-12-10T13:09:50.168Z,1.59
2022-12-10T13:14:49.998Z,1.5
2022-12-10T13:19:48.502Z,1.45
2022-12-10T13:24:47.893Z,1.44
2022-12-10T13:29:46.968Z,1.44
2022-12-10T13:34:46.496Z,1.46
2022-12-10T13:39:46.077Z,1.48
2022-12-10T13:44:45.348Z,1.49
2022-12-10T13:49:44.059Z,1.5
2022-12-10T13:54:44.000Z,1.5
2022-12-10T13:58:46.896Z,1.5
2022-12-10T14:00:12.181Z,1.5
2022-12-10T14:05:06.058Z,1.53
2022-12-10T14:10:04.817Z,1.52
2022-12-10T14:15:05.165Z,1.54
2022-12-10T14:20:04.103Z,1.51
2022-12-10T14:25:03.114Z,1.49
2022-12-10T14:30:02.416Z,1.45
2022-12-10T14:35:01.010Z,1.43
2022-12-10T14:40:00.366Z,1.41
2022-12-10T14:45:00.470Z,1.4
2022-12-10T14:49:59.513Z,1.39
2022-12-10T14:54:57.990Z,1.37
2022-12-10T14:59:17.273Z,1.35
2022-12-10T15:04:20.410Z,1.29
2022-12-10T15:09:16.552Z,1.26
2022-12-10T15:14:16.432Z,1.23
2022-12-10T15:19:26.752Z,1.2
2022-12-10T15:24:25.691Z,1.21
2022-12-10T15:29:27.915Z,1.2
2022-12-10T15:34:27.656Z,1.2
2022-12-10T15:39:24.494Z,1.21
2022-12-10T15:44:23.429Z,1.21
2022-12-10T15:49:23.278Z,1.21
2022-12-10T15:54:22.828Z,1.21
2022-12-10T15:59:04.519Z,1.19
2022-12-10T16:04:04.586Z,1.17
2022-12-10T16:09:04.359Z,1.19
2022-12-10T16:14:02.979Z,1.17
2022-12-10T16:19:02.099Z,1.19
2022-12-10T16:24:01.456Z,1.16
2022-12-10T16:29:00.502Z,1.09
2022-12-10T16:34:00.175Z,0.98
2022-12-10T16:38:58.814Z,0.91
2022-12-10T16:43:58.161Z,0.84
2022-12-10T16:48:56.680Z,0.77
2022-12-10T16:53:56.683Z,0.69
2022-12-10T16:58:44.467Z,0.62
2022-12-10T17:03:43.673Z,0.57
2022-12-10T17:08:42.459Z,0.51
2022-12-10T17:13:42.429Z,0.48
2022-12-10T17:18:41.873Z,0.44
2022-12-10T17:23:40.903Z,0.4
2022-12-10T17:28:39.587Z,0.39
2022-12-10T17:33:38.558Z,0.39
2022-12-10T17:38:38.130Z,0.37
2022-12-10T17:43:37.892Z,0.34
2022-12-10T17:48:37.347Z,0.35
2022-12-10T17:53:36.346Z,0.35
2022-12-10T17:58:35.597Z,0.34
2022-12-10T18:03:34.182Z,0.35
2022-12-10T18:08:34.042Z,0.33
2022-12-10T18:13:33.916Z,0.31
2022-12-10T18:18:32.481Z,0.31
2022-12-10T18:23:31.713Z,0.27
2022-12-10T18:28:30.336Z,0.23
2022-12-10T18:33:30.165Z,0.1
2022-12-10T18:38:28.621Z,-0.04
2022-12-10T18:43:28.953Z,-0.19
2022-12-10T18:48:27.449Z,-0.35
2022-12-10T18:53:27.280Z,-0.54
2022-12-10T18:58:26.932Z,-0.72
2022-12-10T19:03:26.705Z,-0.9
2022-12-10T19:08:25.285Z,-1.05
2022-12-10T19:13:24.909Z,-1.24
2022-12-10T19:18:23.232Z,-1.41
2022-12-10T19:23:23.370Z,-1.58
2022-12-10T19:28:22.605Z,-1.72
2022-12-10T19:33:22.005Z,-1.83
2022-12-10T19:38:20.834Z,-1.94
2022-12-10T19:43:19.595Z,-1.97
2022-12-10T19:48:19.181Z,-2.05
2022-12-10T19:53:18.932Z,-2.15
2022-12-10T19:58:23.334Z,-2.23
2022-12-10T20:03:22.864Z,-2.3
2022-12-10T20:08:22.064Z,-2.3
2022-12-10T20:13:21.969Z,-2.23
2022-12-10T20:18:21.382Z,-2.23
2022-12-10T20:23:20.524Z,-2.21
2022-12-10T20:28:21.006Z,-2.18
2022-12-10T20:33:37.930Z,-2.21
2022-12-10T20:38:08.422Z,-2.27
2022-12-10T20:43:08.158Z,-2.23
2022-12-10T20:48:07.937Z,-2.15
2022-12-10T20:53:06.490Z,-2.25
2022-12-10T20:58:05.340Z,-2.4
2022-12-10T20:59:25.600Z,-2.44
2022-12-10T21:04:25.210Z,-2.58
2022-12-10T21:09:25.569Z,-2.64
2022-12-10T21:14:51.662Z,-2.68
2022-12-10T21:19:22.735Z,-2.7
2022-12-10T21:24:22.990Z,-2.72
2022-12-10T21:29:22.024Z,-2.75
2022-12-10T21:34:20.140Z,-2.8
2022-12-10T21:39:24.684Z,-2.85
2022-12-10T21:44:19.676Z,-2.92
2022-12-10T21:49:18.552Z,-2.98
2022-12-10T21:54:19.102Z,-3.07
2022-12-10T21:59:05.572Z,-3.14
2022-12-10T22:04:05.494Z,-3.17
2022-12-10T22:09:05.629Z,-3.23
2022-12-10T22:14:04.473Z,-3.29
2022-12-10T22:19:03.627Z,-3.32
2022-12-10T22:24:03.293Z,-3.26
2022-12-10T22:29:02.165Z,-3.24
2022-12-10T22:34:01.290Z,-3.21
2022-12-10T22:39:00.442Z,-3.12
2022-12-10T22:43:59.516Z,-3.01
2022-12-10T22:48:59.074Z,-2.92
2022-12-10T22:53:58.879Z,-2.91
2022-12-10T22:58:58.326Z,-2.9
2022-12-10T23:03:57.678Z,-2.9
2022-12-10T23:08:56.453Z,-2.91
2022-12-10T23:13:55.998Z,-2.9
2022-12-10T23:18:55.216Z,-2.84
2022-12-10T23:23:54.257Z,-2.83
2022-12-10T23:28:52.912Z,-2.9
2022-12-10T23:33:51.832Z,-2.99
2022-12-10T23:38:51.718Z,-3.07
2022-12-10T23:43:55.706Z,-3.09
2022-12-10T23:48:50.569Z,-3.04
2022-12-10T23:53:49.465Z,-2.98
2022-12-10T23:58:48.804Z,-2.94
